Weather at Jaluit Seaplane Base [CLOSED]

Public forecast

Using degrees Celsius for public forecast. Weather courtesy of forecast.io.

Closest aviation weather report (METAR) to Jaluit Seaplane Base

Report is more than 2 hours old.

Closest report is Marshall Islands International Airport, 112.1 nm (207.7 km) NE.

2024/05/26 06:55 (retrieved 4 hours ago)

PKMJ 260655Z 07013K 15SM FEW015 SCT050 BKN300 29/25 A2983 RMK LAST

Closest aviation forecast (TAF) to Jaluit Seaplane Base

Closest forecast is Marshall Islands International Airport, 112.1 nm (207.7 km) NE.

2024/05/26 06:42 (retrieved 5 hours ago)

TAF TAF PKMJ 260538Z 2606/2706 08015KT P6SM VCSH SCT015 BKN050 BKN120 TEMPO 2606/2608 3SM +SHRA BKN014 OVC030